WetterOnline ( https://www.wetteronline.de )

Wetter aktuell Bonn

Aktuelles Wetter: Königswinter-Heiderhof (147m)

6-stündlich | Neueste Meldungen
Ortszeit Temperatur Wetter
Mo, 17.06. 2:00 14.4° C bewölkt
So, 16.06. 20:00 16.9° C bewölkt
So, 16.06. 14:00 15.5° C leichter Regen
So, 16.06. 8:00 15.2° C wolkig
So, 16.06. 2:00 15.1° C bedeckt
Sa, 15.06. 20:00 17.3° C bewölkt
Sa, 15.06. 14:00 18.5° C wolkig
Sa, 15.06. 8:00 14.5° C wolkig
Ortszeit Temperatur Wetter
Mo, 17.06. 2:00 14.4° C bewölkt
Mo, 17.06. 1:50 14.4° C bewölkt
Mo, 17.06. 1:40 14.6° C bewölkt
Mo, 17.06. 1:30 14.4° C bedeckt
Mo, 17.06. 1:20 14.4° C bedeckt
Mo, 17.06. 1:10 14.4° C bedeckt
Mo, 17.06. 1:00 14.5° C Sprühregen
Mo, 17.06. 0:30 14.7° C leichter Regen
Mo, 17.06. 0:00 15.0° C bewölkt
So, 16.06. 23:30 14.9° C bedeckt
So, 16.06. 23:00 14.6° C wolkig
Ortszeit Relative Feuchte Sichtweite
Mo, 17.06. 2:00 93% 65 km
So, 16.06. 20:00 71% >70 km
So, 16.06. 14:00 75% 21 km
So, 16.06. 8:00 71% 65 km
So, 16.06. 2:00 63% 65 km
Sa, 15.06. 20:00 47% 65 km
Sa, 15.06. 14:00 48% 50 km
Sa, 15.06. 8:00 86% 65 km
Ortszeit Relative Feuchte Sichtweite
Mo, 17.06. 2:00 93% 65 km
Mo, 17.06. 1:50 93% -
Mo, 17.06. 1:40 92% -
Mo, 17.06. 1:30 93% 65 km
Mo, 17.06. 1:20 93% -
Mo, 17.06. 1:10 93% -
Mo, 17.06. 1:00 92% 40 km
Mo, 17.06. 0:30 90% 30 km
Mo, 17.06. 0:00 87% 65 km
So, 16.06. 23:30 90% 55 km
So, 16.06. 23:00 90% 55 km
Ortszeit Niederschlagsmenge Niederschlagsart
Mo, 17.06. 2:00 0.8 l/m2 in 6 Std. Regen
So, 16.06. 20:00 2 l/m2 in 12 Std. Regen
So, 16.06. 14:00 0.2 l/m2 in 6 Std. Regen
So, 16.06. 8:00 0.1 l/m2 in 12 Std. -
So, 16.06. 2:00 0.1 l/m2 in 6 Std. Regen
Sa, 15.06. 20:00 0.6 l/m2 in 12 Std. -
Sa, 15.06. 14:00 0.6 l/m2 in 6 Std. Regen
Sa, 15.06. 8:00 4 l/m2 in 12 Std. Regen
Ortszeit Niederschlagsmenge Niederschlagsart
Mo, 17.06. 2:00 <0.05 l/m2 in 1 Std. Regen
Mo, 17.06. 1:50 keine Meldung -
Mo, 17.06. 1:40 keine Meldung -
Mo, 17.06. 1:30 <0.05 l/m2 in 30 Min Schneeregen
Mo, 17.06. 1:20 keine Meldung -
Mo, 17.06. 1:10 keine Meldung -
Mo, 17.06. 1:00 0.2 l/m2 in 1 Std. Regen
Mo, 17.06. 0:30 <0.05 l/m2 in 30 Min -
Mo, 17.06. 0:00 0.0 l/m2 in 1 Std. -
So, 16.06. 23:30 0.0 l/m2 in 30 Min -
So, 16.06. 23:00 <0.05 l/m2 in 1 Std. Regen
Ortszeit Stärke Spitze Richtung
km/h Bft. km/h Grad Sektor
Mo, 17.06. 2:00 9 2 30 180° S
So, 16.06. 20:00 24 4 46 210° SW
So, 16.06. 14:00 14 3 43 220° SW
So, 16.06. 8:00 18 3 32 190° S
So, 16.06. 2:00 11 2 36 160° S
Sa, 15.06. 20:00 25 4 50 230° SW
Sa, 15.06. 14:00 22 4 50 230° SW
Sa, 15.06. 8:00 13 3 33 220° SW
Ortszeit Stärke Spitze Richtung
km/h Bft. km/h Grad Sektor
Mo, 17.06. 2:00 9 2 15 180° S
Mo, 17.06. 1:50 9 2 - 180° S
Mo, 17.06. 1:40 9 2 - 170° S
Mo, 17.06. 1:30 11 2 14 170° S
Mo, 17.06. 1:20 11 2 - 170° S
Mo, 17.06. 1:10 11 2 - 180° S
Mo, 17.06. 1:00 11 2 14 190° S
Mo, 17.06. 0:30 7 2 14 170° S
Mo, 17.06. 0:00 11 2 22 190° S
So, 16.06. 23:30 13 3 20 180° S
So, 16.06. 23:00 11 2 22 190° S
Ortszeit Untergrenze Bedeckung Gattung
total tief tief mittel hoch
Mo, 17.06. 2:00 2100 m 7/8 7/8 - - -
So, 16.06. 20:00 960 m 7/8 7/8 - - -
So, 16.06. 14:00 1800 m 8/8 8/8 - - -
So, 16.06. 8:00 900 m 8/8 1/8 - - -
So, 16.06. 2:00 1800 m 8/8 8/8 - - -
Sa, 15.06. 20:00 2400 m 8/8 7/8 - - -
Sa, 15.06. 14:00 1500 m 6/8 6/8 - - -
Sa, 15.06. 8:00 840 m 7/8 4/8 - - -
Ortszeit Bedeckungsgrad in Achtel und Wolkenuntergrenze
Mo, 17.06. 2:00 7(2100m) 7(2400m)
Mo, 17.06. 1:50 7(2100m) 7(2400m)
Mo, 17.06. 1:40 7
Mo, 17.06. 1:30 4(1140m) 8(2100m) 8(2400m)
Mo, 17.06. 1:20 4(1140m) 8(2100m) 8(2400m)
Mo, 17.06. 1:10 8
Mo, 17.06. 1:00 8(2100m)
Mo, 17.06. 0:30 1(870m) 7(2100m) 8(2400m)
Mo, 17.06. 0:00 4(1470m) 6(2100m) 7(2700m)
So, 16.06. 23:30 7(2100m) 8(2700m)
So, 16.06. 23:00 1(1500m) 8(3600m) 8(4200m)
Ortszeit Luftdruck NN (hPa) Tendenz (hPa in 3 Std.)
Mo, 17.06. 2:00 1010 + 0,4
So, 16.06. 20:00 1009 + 0,5
So, 16.06. 14:00 1009 + 0,2
So, 16.06. 8:00 1008 + 0,3
So, 16.06. 2:00 1008 - 0,5
Sa, 15.06. 20:00 1008 + 0,6
Sa, 15.06. 14:00 1007 + 0,6
Sa, 15.06. 8:00 1004 + 2,4
Ortszeit Luftdruck NN (hPa) Tendenz (hPa in 3 Std.)
Mo, 17.06. 2:00 1010 + 0,4
Mo, 17.06. 1:50 1010 keine Meldung
Mo, 17.06. 1:40 1010 keine Meldung
Mo, 17.06. 1:30 1010 + 0,7
Mo, 17.06. 1:20 1010 keine Meldung
Mo, 17.06. 1:10 1010 keine Meldung
Mo, 17.06. 1:00 1010 + 0,9
Mo, 17.06. 0:30 1010 + 1,0
Mo, 17.06. 0:00 1010 + 1,1
So, 16.06. 23:30 1010 + 1,1
So, 16.06. 23:00 1010 + 1,1
Ortszeit Schneehöhe (cm)
Mo, 17.06. 2:00 0
So, 16.06. 20:00 0
So, 16.06. 14:00 0
So, 16.06. 8:00 0
So, 16.06. 2:00 0
Sa, 15.06. 20:00 0
Sa, 15.06. 14:00 0
Sa, 15.06. 8:00 0
Ortszeit Schneehöhe (cm)
Mo, 17.06. 2:00 0
Mo, 17.06. 1:50 0
Mo, 17.06. 1:40 -
Mo, 17.06. 1:30 0
Mo, 17.06. 1:20 0
Mo, 17.06. 1:10 -
Mo, 17.06. 1:00 0
Mo, 17.06. 0:30 0
Mo, 17.06. 0:00 0
So, 16.06. 23:30 0
So, 16.06. 23:00 0
Link zu dieser Seite / Seite empfehlen

Das Wetter in ...